METAR stanice u blizini

 

LYBE - Beograd / Surčin, Srbija
Ažurirano: 20/04/2024 21:30
Vedro
Vedro
 Pravac vetra SSI
Vetar: SSI 9 km/h
Temperatura: 12°C
Tačka rose: -1°C
Vlažnost: 41%
Pritisak: 1011 hPa
Pregled: Vedro
Vidljivost: greater than 10 km
2024/04/20 19:30 LYBE 201930Z 02005KT CAVOK 12/M01 Q1011 NOSIG
LYBT - Beograd / Batajnica, Srbija
Ažurirano: 20/04/2024 21:30
Vedro
Vedro
 Pravac vetra SSI
Vetar: SSI 7 km/h
Temperatura: 11°C
Tačka rose: 0°C
Vlažnost: 47%
Pritisak: 1011 hPa
Pregled: Vedro
Vidljivost: greater than 10 km
2024/04/20 19:30 LYBT 201930Z 03004KT CAVOK 11/00 Q1011 NOSIG
LYVR - Vršac, Srbija
Ažurirano: 20/04/2024 21:30
Vedro
Vedro
 Pravac vetra SI
Vetar: SI 11 km/h
Temperatura: 9°C
Osećaj hladnoće: 7°C
Tačka rose: 2°C
Vlažnost: 62%
Pritisak: 1011 hPa
Pregled: Vedro
Vidljivost: greater than 10 km
2024/04/20 19:30 LYVR 201930Z AUTO 05006KT CAVOK 09/02 Q1011
 
LYKV - Lađevci, Srbija
Ažurirano: 20/04/2024 21:30
Vedro
Vedro
 Pravac vetra SI
Vetar: SI 11 km/h
Temperatura: 12°C
Tačka rose: -1°C
Vlažnost: 41%
Pritisak: 1010 hPa
Pregled: Vedro
Vidljivost: greater than 10 km
2024/04/20 19:30 LYKV 201930Z 04006KT 010V070 CAVOK 12/M01 Q1010 NOSIG
LYNI - Niš, Srbija
Ažurirano: 20/04/2024 21:30
Vedro
Vedro
 Pravac vetra S
Vetar: S 11 km/h
Temperatura: 13°C
Tačka rose: 2°C
Vlažnost: 47%
Pritisak: 1010 hPa
Pregled: Vedro
Vidljivost: greater than 10 km
2024/04/20 19:30 LYNI 201930Z 35006KT CAVOK 13/02 Q1010 NOSIG
BKPR - Priština, Srbija
Ažurirano: 20/04/2024 21:30
Mostly Cloudy
Mostly Cloudy
 Pravac vetra JZ
Vetar: JZ 13 km/h
Temperatura: 10°C
Osećaj hladnoće: 8°C
Tačka rose: 1°C
Vlažnost: 54%
Pritisak: 1010 hPa
Oblaci: Mostly Cloudy
Vidljivost: 10 km
Cloud details: Partly Cloudy 1524 m
Mostly Cloudy 2438 m
2024/04/20 19:30 BKPR 201930Z 22007KT 9999 SCT050 BKN080 10/01 Q1010 NOSIG
 
LHPP - Pecs / Pogany, Hungary
Ažurirano: 20/04/2024 21:15
Vedro
Vedro
 Pravac vetra S
Vetar: S 24 km/h
Temperatura: 9°C
Osećaj hladnoće: 6°C
Tačka rose: 1°C
Vlažnost: 58%
Pritisak: 1013 hPa
Pregled: Vedro
Vidljivost: greater than 10 km
2024/04/20 19:15 LHPP 201915Z AUTO 35013KT 320V020 CAVOK 09/01 Q1013
LHUD - Szeged, Hungary
Ažurirano: 04/07/2019 01:45
NOT Current
Vedro
Vedro
 Pravac vetra S
Vetar: S 7 km/h
Temperatura: 18°C
Tačka rose: 13°C
Vlažnost: 73%
Pritisak: 1019 hPa
Pregled: Vedro
Vidljivost: greater than 10 km
2019/07/03 23:45 LHUD 032345Z 35004KT CAVOK 18/13 Q1019
LRTR - Timisoara, Romania
Ažurirano: 20/04/2024 21:30
Vedro
Vedro
 Pravac vetra S
Vetar: S 13 km/h
Temperatura: 6°C
Osećaj hladnoće: 3°C
Tačka rose: 1°C
Vlažnost: 71%
Pritisak: 1011 hPa
Pregled: Vedro
Vidljivost: greater than 10 km
2024/04/20 19:30 LRTR 201930Z 01007KT CAVOK 06/01 Q1011
 
LRCV - Craiova, Romania
Ažurirano: 20/04/2024 21:30
Vedro
Vedro
 Pravac vetra J
Vetar: J 2 km/h
Temperatura: 11°C
Tačka rose: 4°C
Vlažnost: 62%
Pritisak: 1009 hPa
Pregled: Vedro
Vidljivost: greater than 10 km
2024/04/20 19:30 LRCV 201930Z 18001KT CAVOK 11/04 Q1009
LBSF - Sofia, Bulgaria
Ažurirano: 20/04/2024 21:30
Oblačno
Oblačno
 Pravac vetra J
Vetar: J 15 km/h
Temperatura: 10°C
Osećaj hladnoće: 8°C
Tačka rose: 6°C
Vlažnost: 76%
Pritisak: 1010 hPa
Oblaci: Oblačno
Vidljivost: 10 km
Cloud details: Partly Cloudy 1372 m
Oblačno 2042 m
2024/04/20 19:30 LBSF 201930Z AUTO 19008KT 9999 SCT045/// OVC067/// 10/06 Q1010 NOSIG
LWSK - Skoplje, Makedonija
Ažurirano: 20/04/2024 21:20
Partly Cloudy
Partly Cloudy
 Pravac vetra ISI
Vetar: ISI 6 km/h
Temperatura: 11°C
Tačka rose: 7°C
Vlažnost: 77%
Pritisak: 1010 hPa
Oblaci: Partly Cloudy
Vidljivost: 10 km
Cloud details: Partly Cloudy 1372 m
2024/04/20 19:20 LWSK 201920Z 06003KT 020V090 9999 SCT045 11/07 Q1010 NOSIG
 
LYPG - Podgorica, Crna Gora
Ažurirano: 20/04/2024 21:30
Partly Cloudy
Partly Cloudy
 Pravac vetra SSZ
Vetar: SSZ 9 km/h
Temperatura: 12°C
Tačka rose: 4°C
Vlažnost: 58%
Pritisak: 1010 hPa
Oblaci: Partly Cloudy
Vidljivost: 10 km
Cloud details: Partly Cloudy 1219 m
2024/04/20 19:30 LYPG 201930Z 34005KT 9999 SCT040 12/04 Q1010 NOSIG
LQSA - Sarajevo, Bosna i Hercegovina
Ažurirano: 20/04/2024 21:30
Mostly Cloudy
Mostly Cloudy
 Pravac vetra varies
Vetar: varies 2 km/h
Temperatura: 8°C
Tačka rose: 5°C
Vlažnost: 82%
Pritisak: 1012 hPa
Oblaci: Mostly Cloudy
Vidljivost: 10 km
Cloud details: Mostly Cloudy 1372 m
2024/04/20 19:30 LQSA 201930Z VRB01KT 9999 BKN045 08/05 Q1012 NOSIG
LDOS - Osijek, Hrvatksa
Ažurirano: 20/04/2024 21:30
Partly Cloudy
Partly Cloudy
 Pravac vetra SSZ
Vetar: SSZ 13 km/h
Temperatura: 10°C
Osećaj hladnoće: 8°C
Tačka rose: 3°C
Vlažnost: 62%
Pritisak: 1012 hPa
Oblaci: Partly Cloudy
Vidljivost: 10 km
Cloud details: Partly Cloudy 1372 m
2024/04/20 19:30 LDOS 201930Z 34007KT 9999 SCT045 10/03 Q1012